Airfield :
LOGIN :

Register | Disclaimer

   EN    FR    IT 

 










Legend :    VFR   Marginal VFR   IFR   Intensive IFR   Very Intensive IFR
Visi :
Ceiling :
>= 8 km
>= 3000ft
5 to 8 km
1000 to 3000 ft
1500m to 5 km
500 to 1000 ft
800 to 1500m
200 to 500 ft
< 800m
< 200 ft
Symbols :   Thunderstorms  Fog  Heavy snow  Heavy precipitations  Wind > 20 kt
SIGMETs :     Misc.  Thunderstorms  Icing  Turbulence  Mountain Waves  Volcanic Ashes







- Airport Elevation : 1276 ft
- IATA code : STR


EDDS - Stuttgart

CURRENT METAR :
  • 291250Z 16006KT 070V210 9999 FEW050CB 31/14 Q1014 NOSIG

EXPIRED METARs :
  • 291220Z VRB04KT 9999 FEW063CB 31/13 Q1014 NOSIG
  • 291150Z VRB02KT 9999 FEW060CB 30/14 Q1014 NOSIG
  • 291120Z VRB03KT 9999 FEW057CB FEW060TCU 30/15 Q1015 NOSIG
  • 291050Z VRB03KT 9999 FEW050CB 29/13 Q1015 NOSIG
  • 291020Z VRB02KT 9999 FEW043CB 28/17 Q1015 NOSIG

TAF TAF EDDS
Valid from the 29 at 12:00 until the 30 at 12:00 UTC


291100Z 2912/3012 VRB03KT CAVOK
PROB30
TEMPO 2912/2920 25015G25KT TSRA SCT035CB
No reported NOTAMs for that airfield.



MET'MAP, your aeronautical weather chart ! - Copyright ORBIFLY December 2007 - Disclaimer

ORBIFLY MET'MAP TEAM :

Programming & Development : Alexandra Zaïnal
Concept & Development : Baudouin d'Aumeries
Co-Development & Prog : Marc-Olivier Méhu
Technical & hardware support : Manuel Goepfert

Contact : metmap@orbifly.com




SOURCES & CREDITS :

   NOAA